Time;durP1;ratioP1;P1;durP2;ratioP2;P2;SDS_P1;SDS_P2;PMS_P1;PMS_P2;Temp;Humidity;BMP_temperature;BMP_pressure;BME280_temperature;BME280_humidity;BME280_pressure;Samples;Min_cycle;Max_cycle;Signal;HPM_P1;HPM_P2
2023/07/15 00:01:16;;;;;;;3.47;1.60;;;19.70;90.90;;;;;;5079009;28;20047;-59
2023/07/15 00:03:42;;;;;;;4.60;1.95;;;19.70;91.90;;;;;;5074184;28;20097;-56
2023/07/15 00:06:24;;;;;;;2.63;1.52;;;19.70;91.50;;;;;;5076284;28;20048;-58
2023/07/15 00:08:51;;;;;;;3.13;1.88;;;19.60;91.00;;;;;;5073909;28;20169;-56
2023/07/15 00:11:31;;;;;;;6.57;1.45;;;19.60;90.70;;;;;;5057490;28;20040;-56
2023/07/15 00:13:58;;;;;;;5.22;2.35;;;19.70;92.40;;;;;;5059164;28;20067;-61
2023/07/15 00:16:25;;;;;;;7.15;1.60;;;19.60;91.40;;;;;;5057273;28;20500;-62
2023/07/15 00:18:51;;;;;;;5.57;1.60;;;19.90;90.40;;;;;;5043190;28;20408;-57
2023/07/15 00:21:24;;;;;;;;;;;19.90;91.20;;;;;;5049616;28;20037;-60
2023/07/15 00:23:55;;;;;;;3.42;1.70;;;19.90;90.80;;;;;;5046024;28;19920;-57
2023/07/15 00:26:29;;;;;;;4.70;1.30;;;19.80;91.60;;;;;;5053470;28;20135;-61
2023/07/15 00:28:55;;;;;;;5.00;1.80;;;19.80;91.20;;;;;;5047541;28;20036;-63
2023/07/15 00:31:22;;;;;;;;;;;19.80;90.90;;;;;;5050497;28;20484;-59
2023/07/15 00:33:48;;;;;;;5.43;1.83;;;19.80;90.90;;;;;;5052265;28;19920;-60
2023/07/15 00:36:14;;;;;;;;;;;19.80;92.40;;;;;;5053328;28;20036;-61
2023/07/15 00:38:41;;;;;;;3.10;1.40;;;19.80;92.50;;;;;;5048856;28;19927;-61
2023/07/15 00:41:23;;;;;;;7.70;2.03;;;19.70;92.50;;;;;;5055278;28;20036;-61
2023/07/15 00:43:54;;;;;;;4.82;1.70;;;19.80;92.20;;;;;;5050592;28;20040;-60
2023/07/15 00:46:22;;;;;;;5.57;1.80;;;19.80;91.30;;;;;;5056679;28;20036;-57
2023/07/15 00:48:53;;;;;;;4.72;1.80;;;19.70;91.20;;;;;;5050542;28;20044;-59
2023/07/15 00:51:19;;;;;;;5.25;1.50;;;19.70;92.60;;;;;;5055588;28;20120;-60
2023/07/15 00:53:45;;;;;;;6.68;1.95;;;19.70;92.50;;;;;;5057701;28;20431;-60
2023/07/15 00:56:11;;;;;;;;;;;19.60;92.60;;;;;;5056097;28;20770;-52
2023/07/15 00:58:37;;;;;;;3.67;1.83;;;19.60;92.40;;;;;;5053927;28;20081;-57
2023/07/15 01:01:03;;;;;;;3.65;1.70;;;19.50;92.40;;;;;;5056586;28;20040;-58
2023/07/15 01:03:28;;;;;;;;;;;19.50;92.60;;;;;;5049604;28;20492;-53
2023/07/15 01:05:55;;;;;;;4.35;1.52;;;19.50;92.90;;;;;;5056557;28;20037;-62
2023/07/15 01:08:21;;;;;;;4.85;2.08;;;19.50;92.80;;;;;;5050825;28;20076;-59
2023/07/15 01:10:46;;;;;;;;;;;19.40;93.20;;;;;;5059466;28;20324;-57
2023/07/15 01:13:12;;;;;;;4.95;2.03;;;19.30;93.20;;;;;;5055603;28;19920;-58
2023/07/15 01:15:38;;;;;;;4.78;1.83;;;19.30;93.00;;;;;;5057035;28;20058;-58
2023/07/15 01:18:04;;;;;;;5.85;1.58;;;19.30;92.90;;;;;;5056291;28;20389;-57
2023/07/15 01:20:29;;;;;;;3.92;1.58;;;19.20;93.30;;;;;;5060682;28;20060;-56
2023/07/15 01:22:55;;;;;;;;;;;19.30;93.40;;;;;;5059836;28;20028;-58
2023/07/15 01:25:20;;;;;;;3.75;2.03;;;19.20;93.30;;;;;;5056537;28;19924;-59
2023/07/15 01:27:47;;;;;;;3.25;2.17;;;19.20;93.40;;;;;;5059946;28;20090;-62
2023/07/15 01:30:12;;;;;;;4.07;1.73;;;19.10;93.60;;;;;;5059094;28;20139;-59
2023/07/15 01:32:38;;;;;;;;;;;19.20;93.50;;;;;;5054071;28;20568;-57
2023/07/15 01:35:04;;;;;;;6.22;1.65;;;19.10;93.30;;;;;;5059929;28;19920;-58
2023/07/15 01:37:29;;;;;;;9.63;2.22;;;19.20;93.30;;;;;;5057071;28;20447;-56
2023/07/15 01:39:56;;;;;;;5.65;1.95;;;19.20;93.20;;;;;;5058537;28;20044;-54
2023/07/15 01:42:22;;;;;;;4.13;1.67;;;19.20;93.10;;;;;;5054029;28;20638;-59
2023/07/15 01:44:47;;;;;;;;;;;19.20;93.60;;;;;;5057137;28;20505;-58
2023/07/15 01:47:13;;;;;;;9.82;2.05;;;19.20;93.70;;;;;;5056034;28;19924;-59
2023/07/15 01:49:39;;;;;;;2.97;1.70;;;19.10;94.10;;;;;;5059178;28;20033;-58
2023/07/15 01:52:06;;;;;;;;;;;19.10;94.10;;;;;;5053910;28;20037;-58
2023/07/15 01:54:31;;;;;;;;;;;19.10;93.60;;;;;;5059208;28;19956;-61
2023/07/15 01:56:57;;;;;;;4.28;1.88;;;19.10;94.70;;;;;;5053635;28;20005;-58
2023/07/15 01:59:22;;;;;;;;;;;19.00;94.10;;;;;;5056875;28;20514;-56
2023/07/15 02:01:49;;;;;;;2.75;1.60;;;19.00;93.80;;;;;;5055669;28;20414;-59
2023/07/15 02:04:15;;;;;;;6.15;2.30;;;19.10;93.40;;;;;;5057849;28;20048;-60
2023/07/15 02:06:40;;;;;;;;;;;19.10;93.90;;;;;;5060154;28;20043;-62
2023/07/15 02:09:07;;;;;;;6.10;1.77;;;19.10;93.80;;;;;;5052268;28;20455;-56
2023/07/15 02:11:34;;;;;;;3.42;1.38;;;19.10;93.70;;;;;;5057647;28;20787;-59
2023/07/15 02:14:00;;;;;;;6.78;2.33;;;19.00;93.80;;;;;;5051636;28;20556;-60
2023/07/15 02:16:27;;;;;;;;;;;19.00;93.60;;;;;;5059434;28;20119;-55
2023/07/15 02:18:52;;;;;;;3.42;1.90;;;19.00;92.60;;;;;;5054608;28;19920;-56
2023/07/15 02:21:19;;;;;;;5.78;2.05;;;19.10;93.70;;;;;;5061683;28;20037;-57
2023/07/15 02:23:45;;;;;;;2.63;1.55;;;19.10;93.50;;;;;;5052471;28;20044;-57
2023/07/15 02:26:11;;;;;;;4.28;1.88;;;19.00;93.30;;;;;;5059919;28;20432;-58
2023/07/15 02:28:37;;;;;;;;;;;19.10;93.60;;;;;;5054453;28;20063;-54
2023/07/15 02:31:03;;;;;;;5.70;1.77;;;19.00;93.20;;;;;;5057106;28;19920;-60
2023/07/15 02:33:28;;;;;;;3.45;1.67;;;19.00;93.30;;;;;;5054297;28;20135;-56
2023/07/15 02:35:54;;;;;;;5.07;2.20;;;19.00;92.90;;;;;;5060737;28;20040;-56
2023/07/15 02:38:19;;;;;;;5.93;1.85;;;19.10;92.80;;;;;;5055810;28;20070;-59
2023/07/15 02:40:49;;;;;;;;;;;19.10;92.70;;;;;;5060119;28;20036;-61
2023/07/15 02:43:14;;;;;;;2.22;1.58;;;19.10;92.80;;;;;;5053222;28;19964;-60
2023/07/15 02:45:40;;;;;;;;;;;19.20;92.40;;;;;;5058068;28;20048;-58
2023/07/15 02:48:06;;;;;;;6.57;2.10;;;19.20;92.40;;;;;;5052641;28;19985;-60
2023/07/15 02:50:32;;;;;;;3.03;1.80;;;19.20;92.80;;;;;;5063442;28;20036;-56
2023/07/15 02:52:58;;;;;;;3.35;1.80;;;19.30;92.90;;;;;;5053056;28;20055;-55
2023/07/15 02:55:25;;;;;;;;;;;19.20;92.30;;;;;;5057710;28;20044;-53
2023/07/15 02:57:50;;;;;;;3.35;1.50;;;19.20;92.80;;;;;;5058418;28;19920;-58
2023/07/15 03:00:16;;;;;;;;;;;19.20;92.80;;;;;;5062524;28;20044;-54
2023/07/15 03:02:47;;;;;;;2.75;1.58;;;19.20;92.70;;;;;;5050137;28;19927;-58
2023/07/15 03:05:15;;;;;;;3.38;1.52;;;19.20;93.10;;;;;;5059921;28;20716;-58
2023/07/15 03:07:44;;;;;;;3.75;2.58;;;19.20;93.00;;;;;;5061375;28;20040;-60
2023/07/15 03:10:12;;;;;;;3.10;1.75;;;19.20;93.40;;;;;;5059612;28;20110;-59
2023/07/15 03:12:38;;;;;;;6.85;1.80;;;19.10;92.80;;;;;;5053234;28;20314;-59
2023/07/15 03:15:04;;;;;;;;;;;19.00;93.70;;;;;;5058775;28;20555;-60
2023/07/15 03:17:35;;;;;;;7.32;1.98;;;19.00;93.70;;;;;;5055255;28;20396;-57
2023/07/15 03:20:14;;;;;;;4.30;1.77;;;19.00;93.90;;;;;;5037454;28;20443;-53
2023/07/15 03:22:40;;;;;;;5.60;1.88;;;18.90;93.40;;;;;;5031459;28;20052;-60
2023/07/15 03:25:06;;;;;;;3.70;1.45;;;18.90;93.40;;;;;;5056118;28;20286;-60
2023/07/15 03:27:32;;;;;;;4.30;1.98;;;19.00;93.50;;;;;;5041262;28;20033;-54
2023/07/15 03:29:57;;;;;;;;;;;19.00;93.70;;;;;;5049455;28;20129;-54
2023/07/15 03:32:23;;;;;;;5.50;2.22;;;18.90;93.60;;;;;;5040863;28;19920;-62
2023/07/15 03:34:49;;;;;;;3.50;1.55;;;18.90;93.70;;;;;;5048520;28;20488;-55
2023/07/15 03:37:15;;;;;;;2.83;1.38;;;18.90;93.90;;;;;;5049662;28;20794;-57
2023/07/15 03:39:41;;;;;;;;;;;18.90;93.50;;;;;;5053062;28;20032;-61
2023/07/15 03:42:07;;;;;;;3.65;1.42;;;18.90;93.60;;;;;;5054063;28;19927;-56
2023/07/15 03:44:33;;;;;;;4.38;1.73;;;18.90;94.00;;;;;;5050343;28;20632;-56
2023/07/15 03:46:58;;;;;;;;;;;18.90;93.80;;;;;;5048641;28;20091;-60
2023/07/15 03:49:24;;;;;;;4.60;1.75;;;18.90;93.80;;;;;;5050406;28;20335;-57
2023/07/15 03:51:50;;;;;;;4.90;2.03;;;18.90;94.00;;;;;;5050143;28;20032;-62
2023/07/15 03:54:16;;;;;;;;;;;18.90;94.20;;;;;;5055572;28;20075;-55
2023/07/15 03:56:41;;;;;;;7.38;1.80;;;18.90;93.90;;;;;;5055992;28;19920;-58
2023/07/15 03:59:07;;;;;;;3.65;1.77;;;18.90;93.50;;;;;;5051774;28;20097;-61
2023/07/15 04:01:35;;;;;;;6.68;1.95;;;19.00;94.20;;;;;;5057700;28;21017;-57
2023/07/15 04:04:04;;;;;;;2.75;1.60;;;19.00;93.80;;;;;;5054785;28;20044;-62
2023/07/15 04:06:32;;;;;;;5.80;1.95;;;19.10;94.00;;;;;;5058824;28;20049;-55
2023/07/15 04:08:57;;;;;;;2.75;1.73;;;19.10;94.00;;;;;;5055484;28;20040;-56
2023/07/15 04:11:23;;;;;;;;;;;19.20;93.70;;;;;;5059485;28;20428;-58
2023/07/15 04:13:48;;;;;;;3.17;1.77;;;19.30;93.90;;;;;;5053163;28;19973;-60
2023/07/15 04:16:14;;;;;;;4.75;1.90;;;19.30;95.60;;;;;;5058329;28;20040;-55
2023/07/15 04:18:40;;;;;;;3.08;1.60;;;19.30;96.30;;;;;;5052571;28;20040;-53
2023/07/15 04:21:06;;;;;;;2.67;1.50;;;19.30;96.80;;;;;;5062704;28;20037;-61
2023/07/15 04:23:32;;;;;;;3.22;1.60;;;19.20;96.60;;;;;;5052051;28;20378;-56
2023/07/15 04:25:58;;;;;;;7.90;2.00;;;19.20;96.70;;;;;;5059192;28;20123;-53
2023/07/15 04:28:24;;;;;;;4.43;1.95;;;19.30;97.10;;;;;;5055761;28;20617;-59
2023/07/15 04:30:50;;;;;;;;;;;19.40;97.20;;;;;;5060234;28;20029;-56
2023/07/15 04:33:16;;;;;;;4.97;1.55;;;19.80;96.80;;;;;;5050968;28;19923;-56
2023/07/15 04:35:43;;;;;;;7.53;1.60;;;19.80;96.70;;;;;;5062024;28;20047;-59
2023/07/15 04:38:10;;;;;;;3.22;1.42;;;19.80;97.30;;;;;;5053825;28;20036;-54
2023/07/15 04:40:36;;;;;;;2.33;1.45;;;19.80;97.90;;;;;;5056984;28;20545;-57
2023/07/15 04:43:02;;;;;;;;;;;19.90;97.30;;;;;;5055484;28;20125;-56
2023/07/15 04:45:29;;;;;;;3.77;1.50;;;19.90;97.90;;;;;;5060432;28;19920;-58
2023/07/15 04:47:55;;;;;;;4.00;1.67;;;19.80;98.40;;;;;;5052059;28;20040;-58
2023/07/15 04:50:21;;;;;;;2.40;1.58;;;19.90;98.80;;;;;;5061162;28;20520;-59
2023/07/15 04:52:46;;;;;;;;;;;19.90;98.80;;;;;;5055667;28;20032;-53
2023/07/15 04:55:12;;;;;;;6.63;1.75;;;20.00;98.40;;;;;;5060162;28;20771;-62
2023/07/15 04:57:38;;;;;;;3.78;2.03;;;20.10;98.50;;;;;;5057191;28;20067;-60
2023/07/15 05:00:04;;;;;;;;;;;20.10;98.70;;;;;;5060013;28;20789;-54
2023/07/15 05:02:30;;;;;;;4.60;1.80;;;20.10;99.30;;;;;;5053901;28;19920;-57
2023/07/15 05:04:55;;;;;;;2.63;1.60;;;20.10;98.90;;;;;;5058900;28;20381;-58
2023/07/15 05:07:21;;;;;;;3.00;1.58;;;20.20;98.50;;;;;;5062134;28;20037;-53
2023/07/15 05:09:49;;;;;;;4.05;1.95;;;20.20;99.10;;;;;;5058362;28;20040;-57
2023/07/15 05:12:15;;;;;;;2.45;1.73;;;20.30;98.80;;;;;;5053597;28;20041;-57
2023/07/15 05:14:40;;;;;;;;;;;20.30;99.40;;;;;;5064623;28;20039;-56
2023/07/15 05:17:07;;;;;;;4.28;1.90;;;20.30;99.30;;;;;;5050622;28;20542;-54
2023/07/15 05:19:33;;;;;;;4.28;1.70;;;20.30;99.20;;;;;;5063270;28;20052;-57
2023/07/15 05:21:59;;;;;;;;;;;20.40;98.90;;;;;;5056652;28;20405;-59
2023/07/15 05:24:28;;;;;;;2.92;1.70;;;20.40;99.10;;;;;;5058138;28;20054;-56
2023/07/15 05:26:54;;;;;;;3.45;2.25;;;20.50;98.80;;;;;;5057738;28;20353;-57
2023/07/15 05:29:20;;;;;;;4.43;1.92;;;21.00;98.20;;;;;;5059001;28;20455;-54
2023/07/15 05:31:46;;;;;;;4.80;1.77;;;21.20;97.90;;;;;;5052536;28;20097;-57
2023/07/15 05:34:12;;;;;;;3.17;1.70;;;21.30;94.20;;;;;;5061140;28;20029;-60
2023/07/15 05:36:38;;;;;;;2.80;1.70;;;21.60;94.40;;;;;;5061831;28;20131;-61
2023/07/15 05:39:03;;;;;;;3.15;1.58;;;22.60;94.80;;;;;;5060633;28;20491;-61
2023/07/15 05:41:29;;;;;;;7.30;1.83;;;23.10;93.50;;;;;;5061898;28;20044;-57
2023/07/15 05:43:55;;;;;;;3.80;1.77;;;23.10;92.90;;;;;;5053159;28;20032;-55
2023/07/15 05:46:21;;;;;;;6.00;1.75;;;22.80;91.10;;;;;;5055309;28;20087;-59
2023/07/15 05:48:46;;;;;;;4.20;1.75;;;22.50;92.20;;;;;;5053685;28;20373;-62
2023/07/15 05:51:12;;;;;;;4.10;1.80;;;22.40;92.10;;;;;;5064334;28;20051;-60
2023/07/15 05:53:38;;;;;;;3.67;1.70;;;22.30;91.70;;;;;;5056074;28;20074;-61
2023/07/15 05:56:04;;;;;;;3.97;1.90;;;22.30;92.80;;;;;;5060579;28;20032;-58
2023/07/15 05:58:30;;;;;;;2.67;1.70;;;22.30;93.40;;;;;;5056446;28;20044;-52
2023/07/15 06:00:55;;;;;;;4.25;1.58;;;22.30;91.80;;;;;;5056583;28;20043;-59
2023/07/15 06:03:21;;;;;;;2.97;1.40;;;22.30;92.60;;;;;;5049475;28;20051;-60
2023/07/15 06:05:47;;;;;;;6.78;2.13;;;22.30;91.10;;;;;;5059208;28;20097;-57
2023/07/15 06:08:12;;;;;;;7.55;2.47;;;22.30;91.90;;;;;;5062032;28;20032;-59
2023/07/15 06:10:41;;;;;;;3.00;1.63;;;22.40;92.40;;;;;;5053962;28;20074;-61
2023/07/15 06:13:06;;;;;;;2.72;1.58;;;22.30;91.90;;;;;;5059725;28;20049;-60
2023/07/15 06:15:32;;;;;;;5.22;2.15;;;22.50;91.90;;;;;;5059100;28;20036;-58
2023/07/15 06:17:59;;;;;;;4.63;1.73;;;22.60;90.90;;;;;;5056177;28;20119;-60
2023/07/15 06:20:24;;;;;;;2.03;1.40;;;22.80;90.00;;;;;;5057611;28;20074;-59
2023/07/15 06:22:50;;;;;;;6.60;1.65;;;23.10;89.70;;;;;;5058883;28;20091;-61
2023/07/15 06:25:16;;;;;;;3.35;1.65;;;23.30;90.00;;;;;;5060386;28;20036;-59
2023/07/15 06:27:42;;;;;;;9.15;1.60;;;23.20;89.70;;;;;;5053837;28;20048;-55
2023/07/15 06:30:08;;;;;;;3.55;1.48;;;23.10;90.20;;;;;;5062414;28;20404;-60
2023/07/15 06:32:34;;;;;;;3.78;1.60;;;23.10;90.20;;;;;;5057690;28;20033;-60
2023/07/15 06:34:59;;;;;;;2.92;1.83;;;23.20;89.80;;;;;;5059974;28;20041;-60
2023/07/15 06:37:25;;;;;;;6.38;1.52;;;23.30;90.60;;;;;;5054602;28;20071;-61
2023/07/15 06:39:51;;;;;;;2.78;1.30;;;23.40;89.10;;;;;;5062333;28;20044;-58
2023/07/15 06:42:17;;;;;;;3.28;1.50;;;23.50;88.90;;;;;;5060608;28;20058;-57
2023/07/15 06:44:42;;;;;;;2.63;1.13;;;24.20;88.30;;;;;;5058689;28;20043;-56
2023/07/15 06:47:08;;;;;;;3.30;1.33;;;24.50;85.60;;;;;;5058127;28;20044;-57
2023/07/15 06:49:34;;;;;;;5.97;1.48;;;24.60;85.30;;;;;;5061927;28;20079;-54
2023/07/15 06:51:59;;;;;;;2.30;1.20;;;24.90;84.00;;;;;;5060215;28;20040;-57
2023/07/15 06:54:25;;;;;;;3.08;1.30;;;25.00;82.20;;;;;;5058019;28;20047;-58
2023/07/15 06:56:50;;;;;;;3.58;1.92;;;25.00;82.20;;;;;;5053640;28;20037;-59
2023/07/15 06:59:16;;;;;;;2.13;1.25;;;25.00;82.60;;;;;;5062177;28;20040;-61
2023/07/15 07:01:42;;;;;;;3.55;1.50;;;25.10;84.00;;;;;;5061333;28;20236;-62
2023/07/15 07:04:07;;;;;;;4.60;1.67;;;25.10;84.00;;;;;;5055420;28;20058;-59
2023/07/15 07:06:33;;;;;;;2.45;1.67;;;25.20;83.80;;;;;;5056479;28;20095;-59
2023/07/15 07:08:58;;;;;;;5.05;1.98;;;25.20;86.00;;;;;;5059945;28;20078;-60
2023/07/15 07:11:24;;;;;;;3.33;1.77;;;25.40;87.80;;;;;;5061798;28;20079;-60
2023/07/15 07:13:50;;;;;;;3.65;2.08;;;25.70;86.90;;;;;;5051836;28;20048;-59
2023/07/15 07:16:16;;;;;;;3.95;1.27;;;25.70;85.80;;;;;;5058198;28;20127;-55
2023/07/15 07:18:42;;;;;;;4.95;1.27;;;25.70;86.10;;;;;;5059493;28;20848;-59
2023/07/15 07:21:07;;;;;;;3.45;1.60;;;25.80;84.50;;;;;;5061147;28;20036;-58
2023/07/15 07:23:33;;;;;;;3.75;1.45;;;26.60;84.40;;;;;;5052731;28;20074;-52
2023/07/15 07:26:00;;;;;;;3.80;1.38;;;27.60;82.90;;;;;;5058618;28;20403;-62
2023/07/15 07:28:45;;;;;;;3.75;1.42;;;28.50;75.90;;;;;;5060621;28;20044;-60
2023/07/15 07:31:12;;;;;;;5.13;1.63;;;28.60;74.10;;;;;;5066436;28;20040;-59
2023/07/15 07:33:40;;;;;;;2.67;1.50;;;28.00;79.30;;;;;;5059358;28;20036;-57
2023/07/15 07:36:05;;;;;;;1.60;1.08;;;27.50;81.70;;;;;;5058768;28;20045;-63
2023/07/15 07:38:31;;;;;;;2.50;1.58;;;26.90;79.90;;;;;;5066172;28;20040;-61
2023/07/15 07:41:08;;;;;;;3.83;1.60;;;26.50;81.50;;;;;;5067817;28;20040;-59
2023/07/15 07:43:35;;;;;;;4.15;1.80;;;26.40;84.80;;;;;;5061885;28;20040;-61
2023/07/15 07:46:03;;;;;;;5.32;1.80;;;26.10;85.40;;;;;;5060280;28;20241;-59
2023/07/15 07:48:28;;;;;;;2.05;1.35;;;25.80;88.10;;;;;;5063907;28;20512;-60
2023/07/15 07:50:55;;;;;;;2.22;1.55;;;25.50;85.90;;;;;;5064992;28;20039;-56
2023/07/15 07:53:21;;;;;;;6.43;1.80;;;25.80;85.20;;;;;;5063473;28;20048;-56
2023/07/15 07:55:47;;;;;;;4.47;1.60;;;26.10;86.40;;;;;;5058043;28;20560;-60
2023/07/15 07:58:13;;;;;;;2.38;1.77;;;26.40;86.30;;;;;;5058031;28;20036;-59
2023/07/15 08:00:38;;;;;;;3.13;1.70;;;26.80;85.70;;;;;;5066092;28;20040;-62
2023/07/15 08:03:04;;;;;;;3.30;1.65;;;26.80;83.90;;;;;;5061513;28;20048;-58
2023/07/15 08:05:30;;;;;;;3.47;1.52;;;26.60;84.20;;;;;;5060448;28;20028;-57
2023/07/15 08:07:57;;;;;;;7.40;1.70;;;26.40;84.80;;;;;;5059492;28;20564;-56
2023/07/15 08:10:22;;;;;;;4.25;1.95;;;26.20;84.20;;;;;;5063843;28;20508;-60
2023/07/15 08:12:48;;;;;;;2.55;1.60;;;25.80;84.00;;;;;;5063185;28;20044;-58
2023/07/15 08:15:14;;;;;;;8.52;2.38;;;25.60;85.10;;;;;;5062815;28;21553;-59
2023/07/15 08:17:40;;;;;;;2.28;1.50;;;25.20;84.80;;;;;;5056482;28;20040;-57
2023/07/15 08:20:08;;;;;;;3.10;1.80;;;25.20;86.10;;;;;;5062753;28;20059;-56
2023/07/15 08:22:33;;;;;;;4.55;2.50;;;25.10;86.40;;;;;;5063198;28;20044;-60
2023/07/15 08:24:59;;;;;;;3.97;1.70;;;25.00;87.80;;;;;;5066192;28;20101;-60
2023/07/15 08:27:25;;;;;;;3.80;1.75;;;24.90;86.70;;;;;;5061715;28;20114;-62
2023/07/15 08:29:51;;;;;;;4.30;1.90;;;24.70;86.80;;;;;;5060383;28;20032;-57
2023/07/15 08:32:17;;;;;;;3.42;1.38;;;24.50;87.50;;;;;;5060010;28;20071;-61
2023/07/15 08:34:59;;;;;;;2.05;1.63;;;24.30;88.10;;;;;;5063602;28;20123;-59
2023/07/15 08:37:25;;;;;;;4.32;2.00;;;24.20;88.40;;;;;;5055766;28;20048;-60
2023/07/15 08:39:51;;;;;;;4.78;1.92;;;24.00;89.90;;;;;;5061269;28;20063;-60
2023/07/15 08:42:21;;;;;;;7.38;2.92;;;23.90;90.00;;;;;;5060606;28;20032;-58
2023/07/15 08:44:50;;;;;;;8.77;2.15;;;23.70;90.40;;;;;;5064632;28;20458;-61
2023/07/15 08:47:24;;;;;;;9.10;2.05;;;23.50;90.70;;;;;;5062993;28;20041;-57
2023/07/15 08:49:52;;;;;;;3.17;2.10;;;23.40;90.90;;;;;;5062484;28;20040;-61
2023/07/15 08:52:19;;;;;;;3.35;1.90;;;23.30;91.10;;;;;;5052689;28;20574;-55
2023/07/15 08:54:50;;;;;;;3.67;1.80;;;23.20;91.30;;;;;;5064577;28;20691;-62
2023/07/15 08:57:18;;;;;;;6.97;2.38;;;23.20;91.70;;;;;;5058833;28;20447;-59
2023/07/15 08:59:53;;;;;;;4.78;1.90;;;23.10;92.40;;;;;;5065365;28;20075;-62
2023/07/15 09:02:18;;;;;;;6.05;2.00;;;23.00;93.70;;;;;;5056210;28;20041;-60
2023/07/15 09:04:44;;;;;;;5.82;2.10;;;22.70;94.80;;;;;;5055587;28;20044;-62
2023/07/15 09:07:10;;;;;;;10.65;1.83;;;22.50;96.30;;;;;;5059312;28;20162;-58
2023/07/15 09:09:39;;;;;;;5.93;2.33;;;22.20;96.70;;;;;;5064827;28;20039;-53
2023/07/15 09:12:07;;;;;;;6.03;2.63;;;21.80;98.30;;;;;;5058445;28;20163;-60
2023/07/15 09:14:41;;;;;;;4.05;2.00;;;21.70;99.90;;;;;;5061752;28;20036;-56
2023/07/15 09:17:07;;;;;;;4.40;2.20;;;21.60;99.90;;;;;;5054782;28;20548;-55
2023/07/15 09:19:34;;;;;;;6.50;2.13;;;21.40;99.90;;;;;;5061899;28;20044;-60
2023/07/15 09:22:06;;;;;;;4.57;1.98;;;21.20;99.90;;;;;;5060438;28;21292;-57
2023/07/15 09:24:35;;;;;;;3.10;2.13;;;21.10;99.90;;;;;;5064069;28;20072;-61
2023/07/15 09:27:01;;;;;;;3.65;1.90;;;21.00;99.90;;;;;;5056019;28;20592;-56
2023/07/15 09:29:27;;;;;;;3.38;1.92;;;21.00;99.90;;;;;;5058507;28;20044;-60
2023/07/15 09:31:53;;;;;;;3.55;2.10;;;20.90;99.90;;;;;;5059757;28;20078;-59
2023/07/15 09:34:19;;;;;;;4.43;2.35;;;20.70;99.90;;;;;;5060876;28;20047;-61
2023/07/15 09:36:46;;;;;;;3.63;2.10;;;20.50;99.90;;;;;;5061683;28;20075;-57
2023/07/15 09:39:13;;;;;;;3.42;1.90;;;20.30;99.90;;;;;;5059892;28;20040;-56
2023/07/15 09:41:39;;;;;;;3.90;2.00;;;20.30;99.90;;;;;;5057456;28;20040;-60
2023/07/15 09:44:05;;;;;;;3.53;1.85;;;20.20;99.90;;;;;;5064062;28;20036;-55
2023/07/15 09:46:31;;;;;;;4.80;2.05;;;20.10;99.90;;;;;;5063291;28;20478;-59
2023/07/15 09:48:57;;;;;;;3.22;2.13;;;20.20;99.90;;;;;;5059666;28;20039;-60
2023/07/15 09:51:25;;;;;;;3.65;1.80;;;20.20;99.90;;;;;;5061095;28;20036;-54
2023/07/15 09:53:51;;;;;;;5.45;2.10;;;20.20;99.90;;;;;;5053091;28;20045;-57
2023/07/15 09:56:30;;;;;;;3.05;2.15;;;20.20;99.90;;;;;;5061796;28;20115;-57
2023/07/15 09:59:03;;;;;;;3.88;2.00;;;20.30;99.90;;;;;;5059527;28;20433;-59
2023/07/15 10:01:34;;;;;;;3.65;2.13;;;20.40;99.90;;;;;;5061761;28;20170;-60
2023/07/15 10:04:14;;;;;;;2.75;1.90;;;20.40;99.90;;;;;;5057741;28;20123;-60
2023/07/15 10:06:40;;;;;;;2.13;1.73;;;20.50;99.90;;;;;;5055057;28;20098;-56
2023/07/15 10:09:08;;;;;;;3.00;2.10;;;20.50;99.90;;;;;;5060294;28;20059;-62
2023/07/15 10:11:35;;;;;;;4.63;1.73;;;20.60;99.90;;;;;;5061816;28;20756;-54
2023/07/15 10:14:02;;;;;;;3.50;1.85;;;20.60;99.90;;;;;;5059799;28;20166;-62
2023/07/15 10:16:27;;;;;;;2.85;1.80;;;20.70;99.90;;;;;;5063134;28;20040;-58
2023/07/15 10:18:56;;;;;;;3.72;2.00;;;20.70;99.90;;;;;;5052136;28;20488;-62
2023/07/15 10:21:21;;;;;;;2.72;1.60;;;20.80;99.90;;;;;;5062867;28;20531;-60
2023/07/15 10:23:47;;;;;;;2.65;1.50;;;20.90;99.90;;;;;;5058356;28;20040;-55
2023/07/15 10:26:20;;;;;;;2.30;1.60;;;20.90;99.90;;;;;;5062643;28;20044;-61
2023/07/15 10:28:51;;;;;;;2.90;1.73;;;20.90;99.90;;;;;;5058463;28;20101;-58
2023/07/15 10:31:23;;;;;;;2.22;1.80;;;20.90;99.90;;;;;;5059779;28;20408;-62
2023/07/15 10:34:03;;;;;;;3.95;1.88;;;20.90;99.90;;;;;;5052521;28;20048;-59
2023/07/15 10:36:41;;;;;;;2.30;1.50;;;20.90;99.90;;;;;;5063226;28;20048;-61
2023/07/15 10:39:15;;;;;;;2.58;1.90;;;20.90;99.90;;;;;;5063380;28;20063;-57
2023/07/15 10:41:43;;;;;;;4.22;1.65;;;21.00;99.90;;;;;;5061151;28;20048;-62
2023/07/15 10:44:20;;;;;;;2.17;1.52;;;21.00;99.90;;;;;;5058754;28;20652;-61
2023/07/15 10:46:47;;;;;;;6.65;2.38;;;21.00;99.90;;;;;;5047224;28;20076;-55
2023/07/15 10:49:13;;;;;;;6.88;2.30;;;21.00;99.90;;;;;;5060106;28;20040;-59
2023/07/15 10:51:39;;;;;;;4.65;1.85;;;20.90;99.90;;;;;;5061703;28;20036;-61
2023/07/15 10:54:05;;;;;;;2.33;1.80;;;20.80;99.90;;;;;;5060066;28;20127;-57
2023/07/15 10:56:31;;;;;;;4.65;1.85;;;20.70;99.90;;;;;;5062344;28;20040;-62
2023/07/15 10:58:57;;;;;;;3.17;1.77;;;20.60;99.90;;;;;;5054320;28;20036;-59
2023/07/15 11:01:23;;;;;;;2.80;1.98;;;20.60;99.90;;;;;;5058593;28;20045;-59
2023/07/15 11:03:49;;;;;;;3.95;1.77;;;20.80;99.90;;;;;;5057768;28;20691;-59
2023/07/15 11:06:15;;;;;;;2.97;1.60;;;20.80;99.90;;;;;;5062724;28;20040;-63
2023/07/15 11:08:40;;;;;;;2.30;1.63;;;20.90;99.90;;;;;;5056791;28;20081;-61
2023/07/15 11:11:08;;;;;;;2.85;1.88;;;21.00;99.90;;;;;;5063400;28;20645;-61
2023/07/15 11:13:38;;;;;;;2.05;1.42;;;21.00;99.90;;;;;;5051213;28;20437;-60
2023/07/15 11:16:04;;;;;;;3.03;1.88;;;21.10;99.90;;;;;;5061195;28;20037;-58
2023/07/15 11:18:30;;;;;;;2.08;1.58;;;21.40;99.90;;;;;;5057386;28;20127;-60
2023/07/15 11:20:57;;;;;;;5.13;1.80;;;21.30;99.90;;;;;;5062918;28;20045;-62
2023/07/15 11:23:23;;;;;;;1.60;1.50;;;21.40;99.90;;;;;;5056857;28;20595;-63
2023/07/15 11:25:50;;;;;;;2.90;1.77;;;21.50;99.90;;;;;;5062286;28;20097;-59
2023/07/15 11:28:17;;;;;;;1.75;1.38;;;21.60;99.90;;;;;;5056436;28;20068;-62
2023/07/15 11:30:48;;;;;;;1.77;1.40;;;21.70;99.90;;;;;;5058870;28;20195;-62
2023/07/15 11:33:14;;;;;;;1.83;1.45;;;21.90;99.90;;;;;;5062897;28;20029;-61
2023/07/15 11:35:41;;;;;;;4.05;1.50;;;21.90;99.90;;;;;;5063686;28;20374;-61
2023/07/15 11:38:13;;;;;;;2.38;1.80;;;22.00;99.90;;;;;;5063529;28;20109;-57
2023/07/15 11:40:52;;;;;;;2.50;1.48;;;22.10;99.90;;;;;;5062660;28;20048;-60
2023/07/15 11:43:20;;;;;;;2.70;1.30;;;22.10;99.90;;;;;;5056635;28;20875;-59
2023/07/15 11:45:46;;;;;;;2.15;1.58;;;22.30;99.90;;;;;;5063513;28;20044;-62
2023/07/15 11:48:18;;;;;;;1.98;1.45;;;22.30;99.90;;;;;;5060830;28;20044;-59
2023/07/15 11:50:43;;;;;;;2.10;1.60;;;22.30;99.90;;;;;;5061747;28;20028;-61
2023/07/15 11:53:43;;;;;;;2.42;1.48;;;22.40;99.90;;;;;;5059742;28;20712;-62
2023/07/15 11:56:09;;;;;;;4.57;1.23;;;22.50;99.90;;;;;;5054878;28;20334;-62
2023/07/15 11:58:40;;;;;;;1.90;1.55;;;22.50;99.90;;;;;;5054982;28;20377;-62
2023/07/15 12:01:07;;;;;;;2.15;1.50;;;22.60;99.90;;;;;;5062771;28;20040;-59
2023/07/15 12:03:33;;;;;;;3.30;2.50;;;22.50;99.90;;;;;;5056423;28;20040;-61
2023/07/15 12:05:59;;;;;;;4.45;3.28;;;22.40;99.90;;;;;;5061755;28;20074;-55
2023/07/15 12:08:28;;;;;;;3.35;2.50;;;22.10;99.90;;;;;;5056896;28;20044;-60
2023/07/15 12:10:55;;;;;;;9.25;3.92;;;21.90;99.90;;;;;;5059620;28;20032;-57
2023/07/15 12:13:21;;;;;;;6.38;3.33;;;21.90;99.90;;;;;;5054255;28;20400;-59
2023/07/15 12:15:47;;;;;;;5.45;2.78;;;21.90;99.90;;;;;;5066531;28;20032;-59
2023/07/15 12:18:12;;;;;;;6.72;2.72;;;21.90;99.90;;;;;;5060094;28;20036;-61
2023/07/15 12:20:38;;;;;;;5.18;2.45;;;21.80;99.90;;;;;;5065761;28;20377;-62
2023/07/15 12:23:04;;;;;;;3.47;2.53;;;21.80;99.90;;;;;;5059127;28;20499;-61
2023/07/15 12:25:30;;;;;;;7.15;2.60;;;21.80;99.90;;;;;;5062446;28;20036;-62
2023/07/15 12:27:55;;;;;;;4.53;2.42;;;21.80;99.90;;;;;;5054597;28;20048;-61
2023/07/15 12:30:21;;;;;;;3.47;2.20;;;21.80;99.90;;;;;;5065646;28;20040;-61
2023/07/15 12:32:46;;;;;;;5.18;2.58;;;21.80;99.90;;;;;;5058595;28;20548;-60
2023/07/15 12:35:12;;;;;;;3.60;2.42;;;22.00;99.90;;;;;;5066106;28;20039;-60
2023/07/15 12:37:38;;;;;;;4.47;2.30;;;22.10;99.90;;;;;;5064318;28;20040;-59
2023/07/15 12:40:06;;;;;;;3.22;2.20;;;22.50;99.90;;;;;;5061590;28;20563;-60
2023/07/15 12:42:31;;;;;;;5.35;2.60;;;22.60;99.90;;;;;;5053861;28;20041;-61
2023/07/15 12:44:57;;;;;;;3.75;2.22;;;22.90;99.90;;;;;;5064715;28;20044;-61
2023/07/15 12:47:23;;;;;;;4.72;2.10;;;23.20;99.90;;;;;;5059296;28;20409;-56
2023/07/15 12:49:48;;;;;;;3.40;2.22;;;23.40;99.90;;;;;;5066997;28;20043;-61
2023/07/15 12:52:14;;;;;;;4.32;2.42;;;23.50;99.90;;;;;;5058523;28;20808;-58
2023/07/15 12:54:40;;;;;;;5.78;2.20;;;23.40;99.90;;;;;;5065458;28;20036;-61